Airfield :
LOGIN :

Register | Disclaimer

   EN    FR    IT 

 










Legend :    VFR   Marginal VFR   IFR   Intensive IFR   Very Intensive IFR
Visi :
Ceiling :
>= 8 km
>= 3000ft
5 to 8 km
1000 to 3000 ft
1500m to 5 km
500 to 1000 ft
800 to 1500m
200 to 500 ft
< 800m
< 200 ft
Symbols :   Thunderstorms  Fog  Heavy snow  Heavy precipitations  Wind > 20 kt
SIGMETs :     Misc.  Thunderstorms  Icing  Turbulence  Mountain Waves  Volcanic Ashes







- Airport Elevation : 1822 ft


ETSL - Lechfeld AB

CURRENT METAR :
  • 201420Z 22007KT 9000 -SHRA FEW010 SCT035TCU BKN080 17/16 Q1016 RETSRA BLU

EXPIRED METARs :
  • 201354Z 23013KT 6000 TSRA FEW010 SCT035CB BKN050 18/15 Q1016 WHT
  • 201338Z 22007KT 8000 -TSRA SCT035CB SCT050 BKN080 20/15 Q1016 BLU
  • 201330Z 22006KT 9999 VCTS FEW035CB SCT050 BKN080 20/15 Q1015 BLU
  • 201220Z 31006KT 9999 FEW035 BKN090 BKN130 22/13 Q1015 BLU

Expired Forecast.
No reported NOTAMs for that airfield.
1 SIGMET reported for the München FIR (EDMM) :
 
Squall lined thunderstorms and hail
EDMM SIGMET 8 VALID 201520/201620 EDZF
EDMM MUNCHEN FIR SQL TSGR FCST WI N5028 E01110 - N4903 E01239 - N4802 E01330 - N4712 E01257 - N4916 E01029 - N4955 E01039 - N5028 E01110 TOP FL380 MOV E NC=



MET'MAP, your aeronautical weather chart ! - Copyright ORBIFLY December 2007 - Disclaimer

ORBIFLY MET'MAP TEAM :

Programming & Development : Alexandra Zaïnal
Concept & Development : Baudouin d'Aumeries
Co-Development & Prog : Marc-Olivier Méhu
Technical & hardware support : Manuel Goepfert

Contact : metmap@orbifly.com




SOURCES & CREDITS :

   NOAA